English Harbour East, Canada
Current Conditions -  °F | °C
As of 7:00 PM on Sunday 25 Jan 2015 (Local Time) from LFVP Reporting Station
Broken Clouds Broken Clouds  
Wind Chill: 25°   Ceiling: 2100
Heat Index: 36°   Visibility: 6mi
Dew Point: 30°   Wind: 21mph
Humidity: 81%   Direction: 250°WSW
Pressure: 29.32"   Gusts: NA
Location:  47.65°N, 54.93°W
Report Text: LFVP 252200Z 25018KT 9999 BKN021 02/M01 Q0993 NOSIG
Loading
Personal Weather Stations






























Interactive Weather Map New forecast layout! Learn more

10-Day Weather Forecast

Advertisements
Track Severe Weather on mobile